createdAt,value
2018-11-20T00:00:05.289Z,0.00
2018-11-20T00:01:05.279Z,0.00
2018-11-20T00:02:05.256Z,0.00
2018-11-20T00:03:05.233Z,0.00
2018-11-20T00:04:05.205Z,0.00
2018-11-20T00:05:05.267Z,0.00
2018-11-20T00:06:05.162Z,0.00
2018-11-20T00:07:05.153Z,0.00
2018-11-20T00:08:05.134Z,0.00
2018-11-20T00:09:05.114Z,0.00
2018-11-20T00:10:05.260Z,0.00
2018-11-20T00:11:05.075Z,0.00
2018-11-20T00:12:05.054Z,0.00
2018-11-20T00:13:05.031Z,0.00
2018-11-20T00:14:05.003Z,0.00
2018-11-20T00:15:04.985Z,0.00
2018-11-20T00:16:04.995Z,0.00
2018-11-20T00:17:04.952Z,0.00
2018-11-20T00:18:04.924Z,0.00
2018-11-20T00:19:04.919Z,0.00
2018-11-20T00:20:04.886Z,0.00
2018-11-20T00:21:04.925Z,0.00
2018-11-20T00:22:04.852Z,0.00
2018-11-20T00:23:04.844Z,0.00
2018-11-20T00:24:04.809Z,0.00
2018-11-20T00:25:04.805Z,0.00
2018-11-20T00:26:04.781Z,0.00
2018-11-20T00:27:04.771Z,0.00
2018-11-20T00:28:04.782Z,0.00
2018-11-20T00:29:04.750Z,0.00
2018-11-20T00:30:04.708Z,0.00
2018-11-20T00:31:04.688Z,0.00
2018-11-20T00:32:05.651Z,0.00
2018-11-20T00:33:04.633Z,0.00
2018-11-20T00:34:04.609Z,0.00
2018-11-20T00:35:04.613Z,0.00
2018-11-20T00:36:04.592Z,0.00
2018-11-20T00:37:04.556Z,0.00
2018-11-20T00:38:04.608Z,0.00
2018-11-20T00:39:04.511Z,0.00
2018-11-20T00:40:04.521Z,0.00
2018-11-20T00:41:04.491Z,0.00
2018-11-20T00:42:04.467Z,0.00
2018-11-20T00:43:04.438Z,0.00
2018-11-20T00:44:04.472Z,0.00
2018-11-20T00:45:04.403Z,0.00
2018-11-20T00:46:04.374Z,0.00
2018-11-20T00:47:04.357Z,0.00
2018-11-20T00:48:04.342Z,0.00
2018-11-20T00:49:04.382Z,0.00
2018-11-20T00:50:04.312Z,0.00
2018-11-20T00:51:04.291Z,0.00
2018-11-20T00:52:04.273Z,0.00
2018-11-20T00:53:04.249Z,0.00
2018-11-20T00:54:04.222Z,0.00
2018-11-20T00:55:04.266Z,0.00
2018-11-20T00:56:04.179Z,0.00
2018-11-20T00:57:04.167Z,0.00
2018-11-20T00:58:04.163Z,0.00
2018-11-20T00:59:04.122Z,0.00
2018-11-20T01:00:04.126Z,0.00
2018-11-20T01:01:04.117Z,0.00
2018-11-20T01:02:04.068Z,0.00
2018-11-20T01:03:04.060Z,0.00
2018-11-20T01:04:04.026Z,0.00
2018-11-20T01:05:04.005Z,0.00
2018-11-20T01:06:03.993Z,0.00
2018-11-20T01:07:03.978Z,0.00
2018-11-20T01:08:03.951Z,0.00
2018-11-20T01:09:03.934Z,0.00
2018-11-20T01:10:03.917Z,0.00
2018-11-20T01:11:03.930Z,0.00
2018-11-20T01:12:03.872Z,0.00
2018-11-20T01:13:03.891Z,0.00
2018-11-20T01:14:03.861Z,0.00
2018-11-20T01:15:03.815Z,0.00
2018-11-20T01:16:03.791Z,0.00
2018-11-20T01:17:03.819Z,0.00
2018-11-20T01:18:03.767Z,0.00
2018-11-20T01:19:03.743Z,0.00
2018-11-20T01:20:03.719Z,0.00
2018-11-20T01:21:03.686Z,0.00
2018-11-20T01:22:03.720Z,0.00
2018-11-20T01:23:03.657Z,0.00
2018-11-20T01:24:03.634Z,0.00
2018-11-20T01:25:03.751Z,0.00
2018-11-20T01:26:03.588Z,0.00
2018-11-20T01:27:03.582Z,0.00
2018-11-20T01:28:03.562Z,0.00
2018-11-20T01:29:03.543Z,0.00
2018-11-20T01:30:03.526Z,0.00
2018-11-20T01:31:03.509Z,0.00
2018-11-20T01:32:03.628Z,0.00
2018-11-20T01:33:03.495Z,0.00
2018-11-20T01:34:03.443Z,0.00
2018-11-20T01:35:03.420Z,0.00
2018-11-20T01:36:03.428Z,0.00
2018-11-20T01:37:03.384Z,0.00
2018-11-20T01:38:03.352Z,0.00
2018-11-20T01:39:03.338Z,0.00
2018-11-20T01:40:03.331Z,0.00
2018-11-20T01:41:03.336Z,0.00
2018-11-20T01:42:03.283Z,0.00
2018-11-20T01:43:03.274Z,0.00
2018-11-20T01:44:03.244Z,0.00
2018-11-20T01:45:03.224Z,0.00
2018-11-20T01:46:03.225Z,0.00
2018-11-20T01:47:03.204Z,0.00
2018-11-20T01:48:03.164Z,0.00
2018-11-20T01:49:03.142Z,0.00
2018-11-20T01:50:03.129Z,0.00
2018-11-20T01:51:03.129Z,0.00
2018-11-20T01:52:03.102Z,0.00
2018-11-20T01:53:03.067Z,0.00
2018-11-20T01:54:03.047Z,0.00
2018-11-20T01:55:03.054Z,0.00
2018-11-20T01:56:03.005Z,0.00
2018-11-20T01:57:03.000Z,0.00
2018-11-20T01:58:02.965Z,0.00
2018-11-20T01:59:02.943Z,0.00
2018-11-20T02:00:02.966Z,0.00
2018-11-20T02:01:02.908Z,0.00
2018-11-20T02:02:02.933Z,0.00
2018-11-20T02:03:02.865Z,0.00
2018-11-20T02:04:02.953Z,0.00
2018-11-20T02:05:02.868Z,0.00
2018-11-20T02:06:02.823Z,0.00
2018-11-20T02:07:02.793Z,0.00
2018-11-20T02:08:02.775Z,0.00
2018-11-20T02:09:02.748Z,0.00
2018-11-20T02:10:02.759Z,0.00
2018-11-20T02:11:02.721Z,0.00
2018-11-20T02:12:02.713Z,0.00
2018-11-20T02:13:02.679Z,0.00
2018-11-20T02:14:02.661Z,0.00
2018-11-20T02:15:02.678Z,0.00
2018-11-20T02:16:02.618Z,0.00
2018-11-20T02:17:02.587Z,0.00
2018-11-20T02:18:02.573Z,0.00
2018-11-20T02:19:02.583Z,0.00
2018-11-20T02:20:02.535Z,0.00
2018-11-20T02:21:02.514Z,0.00
2018-11-20T02:22:02.492Z,0.00
2018-11-20T02:23:02.476Z,0.00
2018-11-20T02:24:02.496Z,0.00
2018-11-20T02:25:02.439Z,0.00
2018-11-20T02:26:02.420Z,0.00
2018-11-20T02:27:02.392Z,0.00
2018-11-20T02:28:02.377Z,0.00
2018-11-20T02:29:02.358Z,0.00
2018-11-20T02:30:02.373Z,0.00
2018-11-20T02:31:02.348Z,0.00
2018-11-20T02:32:02.549Z,0.00
2018-11-20T02:33:02.281Z,0.00
2018-11-20T02:34:02.263Z,0.00
2018-11-20T02:35:02.270Z,0.00
2018-11-20T02:36:02.288Z,0.00
2018-11-20T02:37:02.215Z,0.00
2018-11-20T02:38:02.184Z,0.00
2018-11-20T02:39:02.173Z,0.00
2018-11-20T02:40:02.151Z,0.00
2018-11-20T02:41:02.139Z,0.00
2018-11-20T02:42:02.265Z,0.00
2018-11-20T02:43:02.095Z,0.00
2018-11-20T02:44:02.076Z,0.00
2018-11-20T02:45:02.065Z,0.00
2018-11-20T02:46:02.035Z,0.00
2018-11-20T02:47:02.015Z,0.00
2018-11-20T02:48:02.020Z,0.00
2018-11-20T02:49:01.975Z,0.00
2018-11-20T02:50:01.960Z,0.00
2018-11-20T02:51:01.949Z,0.00
2018-11-20T02:52:01.914Z,0.00
2018-11-20T02:53:01.931Z,0.00
2018-11-20T02:54:01.913Z,0.00
2018-11-20T02:55:01.849Z,0.00
2018-11-20T02:56:01.839Z,0.00
2018-11-20T02:57:01.993Z,0.00
2018-11-20T02:58:01.925Z,0.00
2018-11-20T02:59:01.807Z,0.00
2018-11-20T03:00:01.765Z,0.00
2018-11-20T03:01:01.728Z,0.00
2018-11-20T03:02:01.718Z,0.00
2018-11-20T03:03:01.703Z,0.00
2018-11-20T03:04:01.685Z,0.00
2018-11-20T03:05:01.677Z,0.00
2018-11-20T03:06:01.796Z,0.00
2018-11-20T03:07:01.628Z,0.00
2018-11-20T03:08:01.612Z,0.00
2018-11-20T03:09:01.585Z,0.00
2018-11-20T03:10:01.566Z,0.00
2018-11-20T03:11:01.552Z,0.00
2018-11-20T03:12:01.557Z,0.00
2018-11-20T03:13:01.512Z,0.00
2018-11-20T03:14:01.490Z,0.00
2018-11-20T03:15:01.468Z,0.00
2018-11-20T03:16:01.463Z,0.00
2018-11-20T03:17:01.464Z,0.00
2018-11-20T03:18:01.403Z,0.00
2018-11-20T03:19:01.380Z,0.00
2018-11-20T03:20:01.371Z,0.00
2018-11-20T03:21:01.350Z,0.00
2018-11-20T03:22:01.356Z,0.00
2018-11-20T03:23:01.307Z,0.00
2018-11-20T03:24:01.288Z,0.00
2018-11-20T03:25:01.268Z,0.00
2018-11-20T03:26:01.245Z,0.00
2018-11-20T03:27:01.307Z,0.00
2018-11-20T03:28:01.248Z,0.00
2018-11-20T03:29:01.206Z,0.00
2018-11-20T03:30:01.177Z,0.00
2018-11-20T03:31:01.170Z,0.00
2018-11-20T03:32:01.144Z,0.00
2018-11-20T03:33:01.158Z,0.00
2018-11-20T03:34:01.093Z,0.00
2018-11-20T03:35:01.080Z,0.00
2018-11-20T03:36:01.061Z,0.00
2018-11-20T03:37:01.061Z,0.00
2018-11-20T03:38:01.022Z,0.00
2018-11-20T03:39:00.997Z,0.00
2018-11-20T03:40:00.985Z,0.00
2018-11-20T03:41:00.959Z,0.00
2018-11-20T03:42:00.950Z,0.00
2018-11-20T03:43:00.978Z,0.00
2018-11-20T03:44:00.900Z,0.00
2018-11-20T03:45:00.886Z,0.00
2018-11-20T03:46:00.855Z,0.00
2018-11-20T03:47:00.845Z,0.00
2018-11-20T03:48:00.909Z,0.00
2018-11-20T03:49:00.964Z,0.00
2018-11-20T03:50:00.773Z,0.00
2018-11-20T03:51:00.754Z,0.00
2018-11-20T03:52:00.737Z,0.00
2018-11-20T03:53:00.724Z,0.00
2018-11-20T03:54:00.698Z,0.00
2018-11-20T03:55:00.747Z,0.00
2018-11-20T03:56:00.665Z,0.00
2018-11-20T03:57:00.654Z,0.00
2018-11-20T03:58:00.625Z,0.00
2018-11-20T03:59:00.608Z,0.00
2018-11-20T04:00:00.588Z,0.00
2018-11-20T04:01:00.644Z,0.00
2018-11-20T04:02:00.544Z,0.00
2018-11-20T04:03:00.540Z,0.00
2018-11-20T04:04:00.507Z,0.00
2018-11-20T04:05:00.483Z,0.00
2018-11-20T04:06:00.468Z,0.00
2018-11-20T04:07:00.571Z,0.00
2018-11-20T04:08:00.427Z,0.00
2018-11-20T04:09:00.407Z,0.00
2018-11-20T04:10:00.396Z,0.00
2018-11-20T04:11:00.379Z,0.00
2018-11-20T04:12:00.497Z,0.00
2018-11-20T04:13:00.325Z,0.00
2018-11-20T04:14:00.310Z,0.00
2018-11-20T04:15:00.290Z,0.00
2018-11-20T04:16:00.280Z,0.00
2018-11-20T04:17:00.252Z,0.00
2018-11-20T04:18:00.469Z,0.00
2018-11-20T04:19:00.206Z,0.00
2018-11-20T04:20:00.202Z,0.00
2018-11-20T04:21:00.187Z,0.00
2018-11-20T04:22:00.152Z,0.00
2018-11-20T04:23:00.147Z,0.00
2018-11-20T04:24:00.150Z,0.00
2018-11-20T04:25:00.089Z,0.00
2018-11-20T04:26:00.092Z,0.00
2018-11-20T04:27:00.065Z,0.00
2018-11-20T04:28:00.037Z,0.00
2018-11-20T04:29:00.044Z,0.00
2018-11-20T04:29:59.990Z,0.00
2018-11-20T04:30:59.980Z,0.00
2018-11-20T04:31:59.958Z,0.00
2018-11-20T04:32:59.952Z,0.00
2018-11-20T04:33:59.945Z,0.00
2018-11-20T04:34:59.917Z,0.00
2018-11-20T04:35:59.893Z,0.00
2018-11-20T04:36:59.874Z,0.00
2018-11-20T04:37:59.838Z,0.00
2018-11-20T04:38:59.831Z,0.00
2018-11-20T04:39:59.833Z,0.00
2018-11-20T04:41:00.007Z,0.00
2018-11-20T04:41:59.769Z,0.00
2018-11-20T04:42:59.788Z,0.00
2018-11-20T04:43:59.720Z,0.00
2018-11-20T04:44:59.746Z,0.00
2018-11-20T04:45:59.691Z,0.00
2018-11-20T04:46:59.669Z,0.00
2018-11-20T04:47:59.655Z,0.00
2018-11-20T04:48:59.623Z,0.00
2018-11-20T04:49:59.681Z,0.00
2018-11-20T04:50:59.602Z,0.00
2018-11-20T04:51:59.604Z,0.00
2018-11-20T04:52:59.556Z,0.00
2018-11-20T04:53:59.525Z,0.00
2018-11-20T04:54:59.509Z,0.00
2018-11-20T04:55:59.509Z,0.00
2018-11-20T04:56:59.489Z,0.00
2018-11-20T04:57:59.445Z,0.00
2018-11-20T04:58:59.438Z,0.00
2018-11-20T04:59:59.424Z,0.00
2018-11-20T05:00:59.403Z,0.00
2018-11-20T05:01:59.684Z,0.00
2018-11-20T05:02:59.347Z,0.00
2018-11-20T05:03:59.335Z,0.00
2018-11-20T05:04:59.319Z,0.00
2018-11-20T05:05:59.293Z,0.00
2018-11-20T05:06:59.297Z,0.00
2018-11-20T05:07:59.285Z,0.00
2018-11-20T05:08:59.241Z,0.00
2018-11-20T05:09:59.225Z,0.00
2018-11-20T05:10:59.191Z,0.00
2018-11-20T05:11:59.170Z,0.00
2018-11-20T05:12:59.193Z,0.00
2018-11-20T05:13:59.138Z,0.00
2018-11-20T05:14:59.127Z,0.00
2018-11-20T05:15:59.089Z,0.00
2018-11-20T05:16:59.088Z,0.00
2018-11-20T05:17:59.078Z,0.00
2018-11-20T05:18:59.076Z,0.00
2018-11-20T05:19:59.025Z,0.00
2018-11-20T05:20:59.003Z,0.00
2018-11-20T05:21:58.988Z,0.00
2018-11-20T05:22:58.966Z,0.00
2018-11-20T05:23:58.943Z,0.00
2018-11-20T05:24:58.918Z,0.00
2018-11-20T05:25:58.912Z,0.00
2018-11-20T05:26:58.872Z,0.00
2018-11-20T05:27:58.890Z,0.00
2018-11-20T05:28:58.866Z,0.00
2018-11-20T05:29:58.954Z,0.00
2018-11-20T05:30:58.857Z,0.00
2018-11-20T05:31:58.795Z,0.00
2018-11-20T05:32:58.765Z,0.00
2018-11-20T05:33:58.756Z,0.00
2018-11-20T05:34:58.725Z,0.00
2018-11-20T05:35:58.741Z,0.00
2018-11-20T05:36:58.689Z,0.00
2018-11-20T05:37:58.674Z,0.00
2018-11-20T05:38:58.646Z,0.00
2018-11-20T05:39:58.669Z,0.00
2018-11-20T05:40:58.604Z,0.00
2018-11-20T05:41:58.581Z,0.00
2018-11-20T05:42:58.566Z,0.00
2018-11-20T05:43:58.544Z,0.00
2018-11-20T05:44:58.527Z,0.00
2018-11-20T05:45:58.519Z,0.00
2018-11-20T05:46:58.515Z,0.00
2018-11-20T05:47:58.474Z,0.00
2018-11-20T05:48:58.445Z,0.00
2018-11-20T05:49:58.575Z,0.00
2018-11-20T05:50:58.417Z,0.00
2018-11-20T05:51:58.388Z,0.00
2018-11-20T05:52:58.367Z,0.00
2018-11-20T05:53:58.351Z,0.00
2018-11-20T05:54:58.325Z,0.00
2018-11-20T05:55:58.334Z,0.00
2018-11-20T05:56:58.289Z,0.00
2018-11-20T05:57:58.293Z,0.00
2018-11-20T05:58:58.282Z,0.00
2018-11-20T05:59:58.227Z,0.00
2018-11-20T06:00:58.290Z,0.00
2018-11-20T06:01:58.188Z,0.00
2018-11-20T06:02:58.189Z,0.00
2018-11-20T06:03:58.149Z,0.00
2018-11-20T06:04:58.137Z,0.00
2018-11-20T06:05:58.156Z,0.00
2018-11-20T06:06:58.168Z,0.00
2018-11-20T06:07:58.072Z,0.00
2018-11-20T06:08:58.055Z,0.00
2018-11-20T06:09:58.035Z,0.00
2018-11-20T06:10:58.025Z,0.00
2018-11-20T06:11:58.010Z,0.00
2018-11-20T06:12:58.087Z,0.00
2018-11-20T06:13:57.971Z,0.00
2018-11-20T06:14:57.948Z,0.00
2018-11-20T06:15:57.930Z,0.00
2018-11-20T06:16:57.906Z,0.00
2018-11-20T06:17:57.910Z,0.00
2018-11-20T06:18:57.891Z,0.00
2018-11-20T06:19:57.840Z,0.00
2018-11-20T06:20:57.829Z,0.00
2018-11-20T06:21:57.807Z,0.00
2018-11-20T06:22:57.849Z,0.00
2018-11-20T06:23:57.762Z,0.00
2018-11-20T06:24:57.736Z,0.00
2018-11-20T06:25:57.716Z,0.00
2018-11-20T06:26:57.711Z,0.00
2018-11-20T06:27:57.689Z,0.00
2018-11-20T06:28:57.756Z,4.00
2018-11-20T06:29:57.641Z,0.00
2018-11-20T06:30:57.630Z,4.00
2018-11-20T06:31:57.619Z,0.00
2018-11-20T06:32:57.581Z,4.00
2018-11-20T06:33:57.564Z,4.00
2018-11-20T06:34:57.603Z,8.00
2018-11-20T06:35:57.523Z,4.00
2018-11-20T06:36:57.550Z,8.00
2018-11-20T06:37:57.496Z,8.00
2018-11-20T06:38:57.472Z,16.00
2018-11-20T06:39:57.450Z,12.00
2018-11-20T06:40:57.459Z,16.00
2018-11-20T06:41:57.414Z,16.00
2018-11-20T06:42:57.381Z,20.00
2018-11-20T06:43:57.384Z,20.00
2018-11-20T06:44:57.350Z,20.00
2018-11-20T06:45:57.352Z,20.00
2018-11-20T06:46:57.316Z,20.00
2018-11-20T06:47:57.297Z,20.00
2018-11-20T06:48:57.268Z,20.00
2018-11-20T06:49:57.256Z,20.00
2018-11-20T06:50:57.285Z,24.00
2018-11-20T06:51:57.217Z,28.00
2018-11-20T06:52:57.234Z,24.00
2018-11-20T06:53:57.182Z,32.00
2018-11-20T06:54:57.143Z,36.00
2018-11-20T06:55:57.139Z,36.00
2018-11-20T06:56:57.249Z,32.00
2018-11-20T06:57:57.086Z,32.00
2018-11-20T06:58:57.065Z,44.00
2018-11-20T06:59:57.063Z,44.00
2018-11-20T07:00:57.025Z,52.00
2018-11-20T07:01:57.019Z,48.00
2018-11-20T07:02:57.020Z,52.00
2018-11-20T07:03:56.975Z,56.00
2018-11-20T07:04:56.965Z,56.00
2018-11-20T07:05:56.941Z,68.00
2018-11-20T07:06:56.987Z,68.00
2018-11-20T07:07:57.090Z,60.00
2018-11-20T07:08:56.879Z,72.00
2018-11-20T07:09:56.860Z,80.00
2018-11-20T07:10:56.829Z,80.00
2018-11-20T07:11:56.819Z,88.00
2018-11-20T07:12:56.799Z,100.00
2018-11-20T07:13:56.781Z,100.00
2018-11-20T07:14:56.786Z,100.00
2018-11-20T07:15:56.982Z,116.00
2018-11-20T07:16:56.749Z,108.00
2018-11-20T07:17:56.735Z,108.00
2018-11-20T07:18:56.683Z,104.00
2018-11-20T07:19:56.654Z,112.00
2018-11-20T07:20:56.634Z,120.00
2018-11-20T07:21:56.613Z,132.00
2018-11-20T07:22:56.628Z,152.00
2018-11-20T07:23:56.590Z,160.00
2018-11-20T07:24:56.582Z,168.00
2018-11-20T07:25:56.541Z,180.00
2018-11-20T07:26:56.513Z,180.00
2018-11-20T07:27:56.592Z,172.00
2018-11-20T07:28:56.472Z,188.00
2018-11-20T07:29:56.503Z,200.00
2018-11-20T07:30:56.581Z,180.00
2018-11-20T07:31:56.460Z,204.00
2018-11-20T07:32:56.414Z,220.00
2018-11-20T07:33:56.390Z,224.00
2018-11-20T07:34:56.368Z,252.00
2018-11-20T07:35:56.385Z,228.00
2018-11-20T07:36:56.455Z,256.00
2018-11-20T07:37:56.297Z,328.00
2018-11-20T07:38:56.320Z,380.00
2018-11-20T07:39:56.260Z,356.00
2018-11-20T07:40:56.372Z,332.00
2018-11-20T07:41:56.225Z,404.00
2018-11-20T07:42:56.212Z,392.00
2018-11-20T07:43:56.349Z,396.00
2018-11-20T07:44:56.156Z,492.00
2018-11-20T07:45:56.137Z,384.00
2018-11-20T07:46:56.266Z,400.00
2018-11-20T07:47:56.113Z,424.00
2018-11-20T07:48:56.079Z,568.00
2018-11-20T07:49:56.064Z,520.00
2018-11-20T07:50:56.042Z,524.00
2018-11-20T07:51:56.037Z,548.00
2018-11-20T07:52:56.031Z,496.00
2018-11-20T07:53:55.975Z,564.00
2018-11-20T07:54:55.962Z,556.00
2018-11-20T07:55:56.041Z,580.00
2018-11-20T07:56:55.937Z,596.00
2018-11-20T07:57:55.937Z,640.00
2018-11-20T07:58:55.888Z,568.00
2018-11-20T07:59:55.872Z,580.00
2018-11-20T08:00:55.861Z,556.00
2018-11-20T08:01:55.817Z,472.00
2018-11-20T08:02:55.839Z,492.00
2018-11-20T08:03:55.785Z,524.00
2018-11-20T08:04:55.773Z,508.00
2018-11-20T08:05:55.742Z,508.00
2018-11-20T08:06:55.739Z,488.00
2018-11-20T08:07:55.753Z,500.00
2018-11-20T08:08:55.712Z,552.00
2018-11-20T08:09:55.675Z,568.00
2018-11-20T08:10:55.659Z,584.00
2018-11-20T08:11:55.644Z,568.00
2018-11-20T08:12:55.615Z,616.00
2018-11-20T08:13:55.670Z,560.00
2018-11-20T08:14:55.583Z,616.00
2018-11-20T08:15:55.552Z,668.00
2018-11-20T08:16:55.524Z,656.00
2018-11-20T08:17:55.517Z,540.00
2018-11-20T08:18:55.486Z,496.00
2018-11-20T08:19:55.504Z,592.00
2018-11-20T08:20:55.461Z,636.00
2018-11-20T08:21:55.464Z,584.00
2018-11-20T08:22:55.416Z,644.00
2018-11-20T08:23:55.417Z,648.00
2018-11-20T08:24:55.366Z,556.00
2018-11-20T08:25:55.458Z,564.00
2018-11-20T08:26:55.329Z,636.00
2018-11-20T08:27:55.320Z,660.00
2018-11-20T08:28:55.375Z,672.00
2018-11-20T08:29:55.280Z,600.00
2018-11-20T08:30:55.303Z,700.00
2018-11-20T08:31:55.246Z,628.00
2018-11-20T08:32:55.218Z,672.00
2018-11-20T08:33:55.238Z,628.00
2018-11-20T08:34:55.205Z,696.00
2018-11-20T08:35:55.189Z,756.00
2018-11-20T08:36:55.131Z,772.00
2018-11-20T08:37:55.125Z,732.00
2018-11-20T08:38:55.102Z,660.00
2018-11-20T08:39:55.081Z,676.00
2018-11-20T08:40:55.095Z,624.00
2018-11-20T08:41:55.130Z,576.00
2018-11-20T08:42:55.026Z,636.00
2018-11-20T08:43:54.997Z,692.00
2018-11-20T08:44:54.981Z,660.00
2018-11-20T08:45:54.968Z,704.00
2018-11-20T08:46:54.951Z,768.00
2018-11-20T08:47:55.019Z,712.00
2018-11-20T08:48:54.928Z,668.00
2018-11-20T08:49:54.882Z,848.00
2018-11-20T08:50:54.870Z,728.00
2018-11-20T08:51:54.844Z,732.00
2018-11-20T08:52:54.901Z,764.00
2018-11-20T08:53:54.929Z,708.00
2018-11-20T08:54:54.798Z,644.00
2018-11-20T08:55:54.766Z,744.00
2018-11-20T08:56:54.776Z,820.00
2018-11-20T08:57:54.721Z,740.00
2018-11-20T08:58:54.851Z,688.00
2018-11-20T08:59:54.686Z,732.00
2018-11-20T09:00:54.672Z,752.00
2018-11-20T09:01:54.648Z,748.00
2018-11-20T09:02:54.631Z,760.00
2018-11-20T09:03:54.596Z,816.00
2018-11-20T09:04:54.611Z,788.00
2018-11-20T09:05:54.589Z,892.00
2018-11-20T09:06:54.553Z,1016.00
2018-11-20T09:07:54.537Z,1016.00
2018-11-20T09:08:54.495Z,976.00
2018-11-20T09:09:54.557Z,804.00
2018-11-20T09:10:54.467Z,844.00
2018-11-20T09:11:54.441Z,908.00
2018-11-20T09:12:54.420Z,1108.00
2018-11-20T09:13:54.446Z,1064.00
2018-11-20T09:14:54.381Z,756.00
2018-11-20T09:15:54.384Z,704.00
2018-11-20T09:16:54.333Z,812.00
2018-11-20T09:17:54.400Z,784.00
2018-11-20T09:18:54.314Z,876.00
2018-11-20T09:19:54.291Z,824.00
2018-11-20T09:20:54.295Z,1000.00
2018-11-20T09:21:54.268Z,916.00
2018-11-20T09:22:54.233Z,972.00
2018-11-20T09:23:54.210Z,740.00
2018-11-20T09:24:54.185Z,564.00
2018-11-20T09:25:54.285Z,636.00
2018-11-20T09:26:54.183Z,576.00
2018-11-20T09:27:54.167Z,500.00
2018-11-20T09:28:54.119Z,492.00
2018-11-20T09:29:54.087Z,484.00
2018-11-20T09:30:54.083Z,520.00
2018-11-20T09:31:54.085Z,584.00
2018-11-20T09:32:54.039Z,788.00
2018-11-20T09:33:54.037Z,1080.00
2018-11-20T09:34:54.026Z,1008.00
2018-11-20T09:35:53.977Z,1024.00
2018-11-20T09:36:53.983Z,1156.00
2018-11-20T09:37:53.927Z,1140.00
2018-11-20T09:38:53.901Z,1072.00
2018-11-20T09:39:53.932Z,1096.00
2018-11-20T09:40:53.877Z,1452.00
2018-11-20T09:41:53.859Z,1612.00
2018-11-20T09:42:53.844Z,1620.00
2018-11-20T09:43:53.822Z,1744.00
2018-11-20T09:44:53.808Z,1720.00
2018-11-20T09:45:53.827Z,1928.00
2018-11-20T09:46:53.779Z,2008.00
2018-11-20T09:47:53.744Z,1896.00
2018-11-20T09:48:53.706Z,1880.00
2018-11-20T09:49:53.709Z,1644.00
2018-11-20T09:50:53.686Z,1344.00
2018-11-20T09:51:53.659Z,1636.00
2018-11-20T09:52:53.744Z,2148.00
2018-11-20T09:53:53.625Z,2056.00
2018-11-20T09:54:53.593Z,1860.00
2018-11-20T09:55:53.607Z,1348.00
2018-11-20T09:56:53.607Z,1432.00
2018-11-20T09:57:53.533Z,1996.00
2018-11-20T09:58:53.509Z,1536.00
2018-11-20T09:59:53.590Z,1696.00
2018-11-20T10:00:53.486Z,1772.00
2018-11-20T10:01:53.507Z,1520.00
2018-11-20T10:02:53.527Z,1140.00
2018-11-20T10:03:53.526Z,1048.00
2018-11-20T10:04:53.394Z,868.00
2018-11-20T10:05:53.384Z,836.00
2018-11-20T10:06:53.357Z,772.00
2018-11-20T10:07:53.343Z,644.00
2018-11-20T10:08:53.354Z,776.00
2018-11-20T10:09:53.363Z,788.00
2018-11-20T10:10:53.275Z,764.00
2018-11-20T10:11:53.263Z,884.00
2018-11-20T10:12:53.249Z,940.00
2018-11-20T10:13:53.279Z,956.00
2018-11-20T10:14:53.301Z,1076.00
2018-11-20T10:15:53.201Z,1128.00
2018-11-20T10:16:53.176Z,1204.00
2018-11-20T10:17:53.142Z,1244.00
2018-11-20T10:18:53.128Z,1272.00
2018-11-20T10:19:53.095Z,1276.00
2018-11-20T10:20:53.140Z,1304.00
2018-11-20T10:21:53.070Z,1320.00
2018-11-20T10:22:53.054Z,1264.00
2018-11-20T10:23:53.057Z,1060.00
2018-11-20T10:24:53.025Z,1076.00
2018-11-20T10:25:53.226Z,944.00
2018-11-20T10:26:52.966Z,932.00
2018-11-20T10:27:52.947Z,936.00
2018-11-20T10:28:52.918Z,1148.00
2018-11-20T10:29:52.906Z,1240.00
2018-11-20T10:30:52.920Z,1436.00
2018-11-20T10:31:52.888Z,1408.00
2018-11-20T10:32:52.857Z,1404.00
2018-11-20T10:33:52.833Z,1524.00
2018-11-20T10:34:52.832Z,1528.00
2018-11-20T10:35:52.802Z,1576.00
2018-11-20T10:36:52.766Z,1432.00
2018-11-20T10:37:52.781Z,1240.00
2018-11-20T10:38:52.724Z,1508.00
2018-11-20T10:39:52.709Z,1456.00
2018-11-20T10:40:52.688Z,1220.00
2018-11-20T10:41:52.678Z,1388.00
2018-11-20T10:42:52.730Z,1452.00
2018-11-20T10:43:52.693Z,1236.00
2018-11-20T10:44:52.604Z,1184.00
2018-11-20T10:45:52.647Z,1168.00
2018-11-20T10:46:52.581Z,1140.00
2018-11-20T10:47:52.550Z,1124.00
2018-11-20T10:48:52.528Z,1116.00
2018-11-20T10:49:52.540Z,1092.00
2018-11-20T10:50:52.505Z,1012.00
2018-11-20T10:51:52.487Z,980.00
2018-11-20T10:52:52.465Z,1096.00
2018-11-20T10:53:52.432Z,1000.00
2018-11-20T10:54:54.560Z,996.00
2018-11-20T10:55:52.398Z,1072.00
2018-11-20T10:56:52.375Z,1152.00
2018-11-20T10:57:52.368Z,1208.00
2018-11-20T10:58:52.352Z,1228.00
2018-11-20T10:59:52.616Z,1220.00
2018-11-20T11:00:52.295Z,1428.00
2018-11-20T11:01:52.267Z,1364.00
2018-11-20T11:03:00.040Z,1432.00
2018-11-20T11:04:03.455Z,1416.00
2018-11-20T11:04:52.338Z,1624.00
2018-11-20T11:05:52.458Z,1756.00
2018-11-20T11:06:52.347Z,1692.00
2018-11-20T11:07:57.701Z,1856.00
2018-11-20T11:08:52.160Z,1888.00
2018-11-20T11:09:52.213Z,2332.00
2018-11-20T11:10:52.220Z,2316.00
2018-11-20T11:11:52.180Z,2568.00
2018-11-20T11:12:52.097Z,2852.00
2018-11-20T11:13:52.054Z,2872.00
2018-11-20T11:14:52.033Z,2996.00
2018-11-20T11:15:52.001Z,3112.00
2018-11-20T11:16:52.049Z,2652.00
2018-11-20T11:17:51.968Z,2488.00
2018-11-20T11:18:51.955Z,2180.00
2018-11-20T11:19:51.935Z,2104.00
2018-11-20T11:20:51.966Z,2208.00
2018-11-20T11:21:51.884Z,2016.00
2018-11-20T11:22:51.896Z,1972.00
2018-11-20T11:23:51.845Z,2056.00
2018-11-20T11:24:51.837Z,2300.00
2018-11-20T11:25:51.806Z,2864.00
2018-11-20T11:26:51.794Z,3148.00
2018-11-20T11:27:51.810Z,3456.00
2018-11-20T11:28:51.884Z,3760.00
2018-11-20T11:29:51.733Z,3468.00
2018-11-20T11:30:51.706Z,3700.00
2018-11-20T11:31:51.702Z,3816.00
2018-11-20T11:32:51.683Z,4132.00
2018-11-20T11:33:51.647Z,4128.00
2018-11-20T11:34:51.641Z,3984.00
2018-11-20T11:35:51.615Z,4128.00
2018-11-20T11:36:51.609Z,4204.00
2018-11-20T11:37:51.578Z,3532.00
2018-11-20T11:38:51.601Z,4124.00
2018-11-20T11:39:51.553Z,4504.00
2018-11-20T11:40:51.518Z,4696.00
2018-11-20T11:41:51.499Z,4220.00
2018-11-20T11:42:51.474Z,4692.00
2018-11-20T11:43:51.472Z,4464.00
2018-11-20T11:44:51.434Z,4596.00
2018-11-20T11:45:51.415Z,4540.00
2018-11-20T11:46:51.400Z,3820.00
2018-11-20T11:47:51.390Z,4084.00
2018-11-20T11:48:51.392Z,4076.00
2018-11-20T11:49:51.337Z,3800.00
2018-11-20T11:50:51.342Z,3536.00
2018-11-20T11:51:51.298Z,3868.00
2018-11-20T11:52:51.292Z,3400.00
2018-11-20T11:53:51.275Z,3744.00
2018-11-20T11:54:51.307Z,3372.00
2018-11-20T11:55:51.265Z,3116.00
2018-11-20T11:56:51.203Z,3060.00
2018-11-20T11:57:51.182Z,2976.00
2018-11-20T11:58:51.196Z,3212.00
2018-11-20T11:59:51.476Z,2880.00
2018-11-20T12:00:53.523Z,2712.00
2018-11-20T12:03:51.062Z,3156.00
2018-11-20T12:04:51.059Z,3116.00
2018-11-20T12:05:51.793Z,3492.00
2018-11-20T12:06:51.024Z,3192.00
2018-11-20T12:07:51.021Z,3028.00
2018-11-20T12:08:50.970Z,3120.00
2018-11-20T12:09:50.971Z,2836.00
2018-11-20T12:10:50.973Z,3372.00
2018-11-20T12:11:51.019Z,2844.00
2018-11-20T12:12:50.956Z,2836.00
2018-11-20T12:13:50.879Z,2772.00
2018-11-20T12:14:51.566Z,3056.00
2018-11-20T12:15:50.845Z,2892.00
2018-11-20T12:16:50.821Z,2984.00
2018-11-20T12:17:50.803Z,2712.00
2018-11-20T12:18:50.821Z,2372.00
2018-11-20T12:19:50.776Z,2160.00
2018-11-20T12:20:50.741Z,2244.00
2018-11-20T12:21:50.742Z,2080.00
2018-11-20T12:22:50.710Z,2376.00
2018-11-20T12:23:50.765Z,2040.00
2018-11-20T12:24:50.677Z,1960.00
2018-11-20T12:25:50.657Z,2080.00
2018-11-20T12:26:50.631Z,2016.00
2018-11-20T12:27:50.614Z,1940.00
2018-11-20T12:28:53.059Z,2140.00
2018-11-20T12:29:50.588Z,2012.00
2018-11-20T12:30:51.697Z,1776.00
2018-11-20T12:31:50.804Z,1756.00
2018-11-20T12:32:50.521Z,1772.00
2018-11-20T12:33:50.530Z,1720.00
2018-11-20T12:34:50.497Z,1716.00
2018-11-20T12:35:50.442Z,1796.00
2018-11-20T12:36:50.435Z,1636.00
2018-11-20T12:37:50.426Z,1672.00
2018-11-20T12:38:50.399Z,1868.00
2018-11-20T12:39:50.388Z,1972.00
2018-11-20T12:40:50.850Z,1880.00
2018-11-20T12:41:50.345Z,1784.00
2018-11-20T12:42:50.328Z,1768.00
2018-11-20T12:43:50.307Z,1668.00
2018-11-20T12:44:50.304Z,1592.00
2018-11-20T12:45:50.269Z,1488.00
2018-11-20T12:46:50.882Z,1360.00
2018-11-20T12:47:50.226Z,1324.00
2018-11-20T12:48:50.215Z,1384.00
2018-11-20T12:49:51.941Z,1316.00